Terminal Aerodrome Forecast
Issued by NWS

Home | Current Version | Previous Version | Text Only | Print | Product List | Glossary On
Versions: 1 2 3 4 5 6 7 8 9 10 11 12 13 14 15 16 17 18 19
512
FTUS43 KICT 272325
TAFSLN
TAF
KSLN 272325Z 2800/2824 09005KT P6SM OVC018
     FM280900 09004KT 4SM BR OVC006
     FM281500 10007KT P6SM BKN009
     FM282000 09014G21KT P6SM BKN030=

USA.gov is the U.S. government's official web portal to all federal, state and local government web resources and services.